Main page
METAR-TAF:

METAR-TAF

Airports :

Antrim County Airport

Bellaire, Michigan, United States

latitude: 44-59-18N, longitude: 085-11-54W, elevation: 623 ft

Current weather observation

The report was made 19 minutes ago, at 09:55 UTC
Calm wind
Temperature 27°F
Humidity 86%
Pressure 30.03 in. Hg
Visibility: 10 miles
Clear sky

METAR: KACB 220955Z AUTO 00000KT 10SM CLR M03/M05 A3003 RMK AO2 T10331048

Time: 06:14 (10:14 UTC)


TAF: missing

Weather observations and forecasts of more than 4000 airports (METAR and TAF reports).

The available stations are represented by yellow and red dots on the map.

Hover mouse over dot to see the name of the station.

Then click to see weather observations and forecasts.

To change the map : click on the green buttons with a black cross to zoom in, on the green button with a dash to zoom out, or on the green arrows for adjacent maps.


METAR-TAF: